Time;durP1;ratioP1;P1;durP2;ratioP2;P2;SDS_P1;SDS_P2;PMS_P1;PMS_P2;Temp;Humidity;BMP_temperature;BMP_pressure;BME280_temperature;BME280_humidity;BME280_pressure;Samples;Min_cycle;Max_cycle;Signal;HPM_P1;HPM_P2
2022/03/01 00:00:36;;;;;;;16.70;10.25;;;0.80;99.90;;;;;;5030590;28;20048;-51
2022/03/01 00:03:02;;;;;;;16.77;10.40;;;0.80;99.90;;;;;;5030783;28;20079;-48
2022/03/01 00:05:28;;;;;;;18.52;10.82;;;0.80;99.90;;;;;;5035784;28;20132;-51
2022/03/01 00:07:53;;;;;;;16.90;10.77;;;0.90;99.90;;;;;;5037078;28;20052;-51
2022/03/01 00:10:19;;;;;;;20.05;11.07;;;0.90;99.90;;;;;;5036975;28;20503;-48
2022/03/01 00:12:45;;;;;;;22.33;11.45;;;0.90;99.90;;;;;;5037210;28;20083;-51
2022/03/01 00:15:11;;;;;;;18.92;11.07;;;0.80;99.90;;;;;;5037081;28;20051;-47
2022/03/01 00:17:36;;;;;;;17.25;10.27;;;0.80;99.90;;;;;;5037138;28;20430;-49
2022/03/01 00:20:04;;;;;;;19.48;10.93;;;0.80;99.90;;;;;;5036638;28;20045;-50
2022/03/01 00:22:30;;;;;;;20.45;11.82;;;0.80;99.90;;;;;;5037023;28;20047;-47
2022/03/01 00:24:56;;;;;;;19.92;10.68;;;0.70;99.90;;;;;;5037305;28;20045;-52
2022/03/01 00:27:22;;;;;;;17.10;11.18;;;0.60;99.90;;;;;;5036712;28;20065;-47
2022/03/01 00:29:47;;;;;;;17.48;10.07;;;0.70;99.90;;;;;;5036931;28;20038;-50
2022/03/01 00:32:13;;;;;;;18.63;10.57;;;0.60;99.90;;;;;;5037284;28;20049;-47
2022/03/01 00:34:39;;;;;;;19.35;10.70;;;0.60;99.90;;;;;;5036706;28;20057;-47
2022/03/01 00:37:04;;;;;;;18.85;11.10;;;0.60;99.90;;;;;;5037237;28;20045;-47
2022/03/01 00:39:30;;;;;;;21.00;11.20;;;0.60;99.90;;;;;;5037491;28;20124;-47
2022/03/01 00:41:56;;;;;;;22.13;11.63;;;0.60;99.90;;;;;;5038104;28;20037;-48
2022/03/01 00:44:22;;;;;;;17.80;10.88;;;0.50;99.90;;;;;;5037672;28;20034;-49
2022/03/01 00:46:47;;;;;;;18.90;11.48;;;0.50;99.90;;;;;;5037544;28;20037;-47
2022/03/01 00:49:13;;;;;;;18.50;10.25;;;0.60;99.90;;;;;;5037568;28;20529;-47
2022/03/01 00:51:39;;;;;;;20.88;11.90;;;0.60;99.90;;;;;;5037388;28;20045;-48
2022/03/01 00:54:05;;;;;;;17.70;10.82;;;0.50;99.90;;;;;;5036812;28;20048;-51
2022/03/01 00:56:33;;;;;;;19.85;10.77;;;0.60;99.90;;;;;;5035771;28;20113;-49
2022/03/01 00:58:59;;;;;;;18.83;11.60;;;0.50;99.90;;;;;;5037103;28;20486;-47
2022/03/01 01:01:25;;;;;;;17.45;10.30;;;0.50;99.90;;;;;;5036716;28;20056;-47
2022/03/01 01:03:50;;;;;;;23.23;10.93;;;0.50;99.90;;;;;;5037466;28;20038;-47
2022/03/01 01:06:16;;;;;;;17.35;10.48;;;0.40;99.90;;;;;;5037367;28;20038;-50
2022/03/01 01:08:43;;;;;;;19.13;11.15;;;0.40;99.90;;;;;;5037129;28;20116;-47
2022/03/01 01:11:09;;;;;;;18.02;11.48;;;0.40;99.90;;;;;;5037383;28;20081;-48
2022/03/01 01:13:35;;;;;;;21.88;11.20;;;0.40;99.90;;;;;;5037474;28;20049;-51
2022/03/01 01:16:00;;;;;;;19.20;11.45;;;0.40;99.90;;;;;;5034891;28;20045;-47
2022/03/01 01:18:26;;;;;;;21.38;12.07;;;0.40;99.90;;;;;;5034060;28;20045;-48
2022/03/01 01:20:53;;;;;;;20.25;11.85;;;0.30;99.90;;;;;;5034279;28;20044;-50
2022/03/01 01:23:19;;;;;;;17.50;11.15;;;0.30;99.90;;;;;;5033581;28;20045;-47
2022/03/01 01:25:45;;;;;;;16.90;11.05;;;0.30;99.90;;;;;;5033976;28;20048;-47
2022/03/01 01:28:11;;;;;;;18.20;11.52;;;0.20;99.90;;;;;;5033923;28;20087;-48
2022/03/01 01:30:37;;;;;;;19.70;12.05;;;0.20;99.90;;;;;;5033987;28;20125;-49
2022/03/01 01:33:03;;;;;;;18.83;11.88;;;0.20;99.90;;;;;;5033967;28;20116;-48
2022/03/01 01:35:30;;;;;;;20.83;11.73;;;0.10;99.90;;;;;;5033482;28;20045;-48
2022/03/01 01:37:56;;;;;;;20.45;11.80;;;0.10;99.90;;;;;;5033395;28;20483;-49
2022/03/01 01:40:30;;;;;;;20.77;11.82;;;0.10;99.90;;;;;;5033362;28;20053;-47
2022/03/01 01:42:57;;;;;;;20.20;11.88;;;0.10;99.90;;;;;;5033646;28;20050;-49
2022/03/01 01:45:24;;;;;;;19.25;12.73;;;0.20;99.90;;;;;;5031961;28;20085;-50
2022/03/01 01:47:52;;;;;;;19.75;12.25;;;0.20;99.90;;;;;;5032187;28;20439;-48
2022/03/01 01:50:19;;;;;;;20.65;11.07;;;0.10;99.90;;;;;;5033652;28;20079;-49
2022/03/01 01:52:46;;;;;;;19.48;11.73;;;0.20;99.90;;;;;;5033825;28;20104;-49
2022/03/01 01:55:14;;;;;;;17.88;11.65;;;0.20;99.90;;;;;;5033426;28;20038;-47
2022/03/01 01:57:39;;;;;;;20.52;12.13;;;0.20;99.90;;;;;;5033261;28;20077;-47
2022/03/01 02:00:06;;;;;;;22.20;12.73;;;0.20;99.90;;;;;;5033108;28;20092;-48
2022/03/01 02:02:32;;;;;;;25.35;11.77;;;0.20;99.90;;;;;;5033230;28;20418;-49
2022/03/01 02:04:59;;;;;;;20.15;12.77;;;0.20;99.90;;;;;;5033763;28;20055;-49
2022/03/01 02:07:25;;;;;;;19.95;12.55;;;0.10;99.90;;;;;;5033381;28;20041;-48
2022/03/01 02:09:50;;;;;;;22.58;13.55;;;0.00;99.90;;;;;;5033083;28;20072;-50
2022/03/01 02:12:16;;;;;;;20.52;12.80;;;0.00;99.90;;;;;;5033492;28;20094;-47
2022/03/01 02:14:42;;;;;;;20.55;11.52;;;0.00;99.90;;;;;;5033372;28;20488;-48
2022/03/01 02:17:10;;;;;;;21.05;13.35;;;0.00;99.90;;;;;;5033295;28;20463;-48
2022/03/01 02:19:36;;;;;;;21.25;12.45;;;0.00;99.90;;;;;;5032862;28;20037;-47
2022/03/01 02:22:04;;;;;;;25.58;12.93;;;0.00;99.90;;;;;;5033707;28;20491;-48
2022/03/01 02:24:30;;;;;;;22.52;13.45;;;0.10;99.90;;;;;;5033318;28;20037;-49
2022/03/01 02:26:58;;;;;;;19.63;12.00;;;0.00;99.90;;;;;;5031211;28;20073;-49
2022/03/01 02:29:24;;;;;;;20.13;12.32;;;0.10;99.90;;;;;;5033126;28;20124;-48
2022/03/01 02:31:52;;;;;;;22.80;12.98;;;0.00;99.90;;;;;;5032948;28;20072;-51
2022/03/01 02:34:18;;;;;;;23.13;12.98;;;0.00;99.90;;;;;;5032813;28;20120;-50
2022/03/01 02:36:45;;;;;;;21.25;12.50;;;-0.10;99.90;;;;;;5033408;28;20049;-47
2022/03/01 02:39:11;;;;;;;24.65;13.18;;;0.00;99.90;;;;;;5032826;28;20053;-48
2022/03/01 02:41:42;;;;;;;23.55;14.35;;;-0.10;99.90;;;;;;5033226;28;20043;-48
2022/03/01 02:44:08;;;;;;;25.75;13.43;;;-0.10;99.90;;;;;;5033393;28;20080;-51
2022/03/01 02:46:35;;;;;;;26.00;14.80;;;-0.10;99.90;;;;;;5033018;28;20092;-47
2022/03/01 02:49:01;;;;;;;22.45;13.40;;;0.00;99.90;;;;;;5033327;28;20048;-52
2022/03/01 02:51:27;;;;;;;23.17;13.55;;;0.00;99.90;;;;;;5032767;28;20124;-47
2022/03/01 02:53:53;;;;;;;23.95;14.40;;;0.00;99.90;;;;;;5033070;28;20464;-48
2022/03/01 02:56:19;;;;;;;22.00;13.20;;;0.00;99.90;;;;;;5032610;28;20045;-47
2022/03/01 02:58:44;;;;;;;25.17;13.25;;;0.10;99.90;;;;;;5032376;28;20046;-48
2022/03/01 03:01:10;;;;;;;22.02;13.32;;;0.10;99.90;;;;;;5033144;28;20038;-48
2022/03/01 03:03:36;;;;;;;27.08;13.60;;;0.10;99.90;;;;;;5032067;28;20501;-48
2022/03/01 03:06:02;;;;;;;23.77;14.38;;;0.10;99.90;;;;;;5032177;28;20042;-47
2022/03/01 03:08:28;;;;;;;27.02;14.52;;;0.10;99.90;;;;;;5030700;28;20132;-47
2022/03/01 03:10:54;;;;;;;23.08;13.70;;;0.10;99.90;;;;;;5031963;28;20075;-47
2022/03/01 03:13:20;;;;;;;22.05;14.00;;;0.10;99.90;;;;;;5032739;28;20510;-48
2022/03/01 03:15:47;;;;;;;23.33;13.98;;;0.10;99.90;;;;;;5032247;28;20087;-48
2022/03/01 03:18:13;;;;;;;22.80;13.38;;;0.00;99.90;;;;;;5032142;28;20491;-48
2022/03/01 03:20:39;;;;;;;21.55;13.60;;;0.00;99.90;;;;;;5032076;28;20067;-50
2022/03/01 03:23:05;;;;;;;23.20;13.68;;;0.00;99.90;;;;;;5032192;28;20049;-47
2022/03/01 03:25:31;;;;;;;23.25;13.50;;;-0.10;99.90;;;;;;5032107;28;20042;-48
2022/03/01 03:27:57;;;;;;;25.58;14.77;;;-0.10;99.90;;;;;;5031980;28;20041;-47
2022/03/01 03:30:23;;;;;;;23.13;14.25;;;-0.10;99.90;;;;;;5031988;28;20419;-47
2022/03/01 03:32:49;;;;;;;24.50;14.48;;;-0.10;99.90;;;;;;5031750;28;20369;-49
2022/03/01 03:35:14;;;;;;;27.27;14.13;;;-0.20;99.90;;;;;;5031653;28;20056;-48
2022/03/01 03:37:40;;;;;;;24.52;14.45;;;-0.20;99.90;;;;;;5031791;28;20048;-50
2022/03/01 03:40:07;;;;;;;22.50;13.82;;;-0.20;99.90;;;;;;5031523;28;20130;-50
2022/03/01 03:42:33;;;;;;;28.38;15.07;;;-0.20;99.90;;;;;;5031890;28;20033;-47
2022/03/01 03:44:59;;;;;;;24.45;14.57;;;-0.20;99.90;;;;;;5031874;28;20052;-51
2022/03/01 03:47:25;;;;;;;22.90;13.68;;;-0.20;99.90;;;;;;5031687;28;20038;-48
2022/03/01 03:49:50;;;;;;;23.95;13.70;;;-0.20;99.90;;;;;;5031642;28;20050;-48
2022/03/01 03:52:16;;;;;;;27.48;15.18;;;-0.30;99.90;;;;;;5031982;28;20038;-47
2022/03/01 03:54:42;;;;;;;23.55;13.93;;;-0.20;99.90;;;;;;5031640;28;20514;-48
2022/03/01 03:57:08;;;;;;;26.98;14.70;;;-0.20;99.90;;;;;;5031584;28;20530;-50
2022/03/01 03:59:38;;;;;;;25.90;15.52;;;-0.20;99.90;;;;;;5031600;28;20049;-47
2022/03/01 04:02:05;;;;;;;24.10;14.68;;;-0.20;99.90;;;;;;5031634;28;20099;-49
2022/03/01 04:04:31;;;;;;;28.30;14.90;;;-0.20;99.90;;;;;;5031417;28;20041;-49
2022/03/01 04:06:57;;;;;;;24.67;14.50;;;-0.20;99.90;;;;;;5031539;28;20120;-47
2022/03/01 04:09:23;;;;;;;25.13;14.38;;;-0.10;99.90;;;;;;5031696;28;20053;-48
2022/03/01 04:11:49;;;;;;;25.58;13.85;;;-0.10;99.90;;;;;;5031507;28;20459;-51
2022/03/01 04:14:14;;;;;;;28.38;15.60;;;0.00;99.90;;;;;;5031709;28;20529;-48
2022/03/01 04:16:42;;;;;;;23.33;14.55;;;0.00;99.90;;;;;;5031230;28;20519;-48
2022/03/01 04:19:09;;;;;;;24.65;14.48;;;0.00;99.90;;;;;;5031269;28;20484;-47
2022/03/01 04:21:35;;;;;;;24.38;14.32;;;0.00;99.90;;;;;;5031594;28;20395;-47
2022/03/01 04:24:01;;;;;;;23.65;13.18;;;0.00;99.90;;;;;;5031541;28;20565;-48
2022/03/01 04:26:27;;;;;;;26.45;15.38;;;0.00;99.90;;;;;;5031078;28;20040;-48
2022/03/01 04:28:53;;;;;;;24.35;14.98;;;0.00;99.90;;;;;;5031086;28;20041;-50
2022/03/01 04:31:19;;;;;;;24.08;14.00;;;0.10;99.90;;;;;;5031087;28;20061;-47
2022/03/01 04:33:44;;;;;;;24.10;13.90;;;0.00;99.90;;;;;;5030680;28;20049;-50
2022/03/01 04:36:10;;;;;;;28.33;14.18;;;0.10;99.90;;;;;;5030581;28;20104;-48
2022/03/01 04:38:37;;;;;;;23.17;13.50;;;1.00;99.90;;;;;;5030883;28;20049;-48
2022/03/01 04:41:03;;;;;;;25.65;14.55;;;-0.10;99.90;;;;;;5030725;28;20506;-48
2022/03/01 04:43:28;;;;;;;24.55;14.73;;;-0.10;99.90;;;;;;5031232;28;20048;-49
2022/03/01 04:45:54;;;;;;;24.65;14.00;;;-0.10;99.90;;;;;;5031113;28;20490;-48
2022/03/01 04:48:20;;;;;;;25.60;14.50;;;-0.10;99.90;;;;;;5046247;28;20037;-51
2022/03/01 04:50:46;;;;;;;25.05;15.90;;;-0.20;99.90;;;;;;5031882;28;20052;-47
2022/03/01 04:53:12;;;;;;;25.85;14.52;;;-0.20;99.90;;;;;;5034226;28;20044;-48
2022/03/01 04:55:38;;;;;;;24.17;13.85;;;-0.20;99.90;;;;;;5033665;28;20453;-48
2022/03/01 04:58:03;;;;;;;22.95;14.32;;;-0.20;99.90;;;;;;5034179;28;20124;-48
2022/03/01 05:00:29;;;;;;;26.42;15.55;;;-0.20;99.90;;;;;;5033969;28;20053;-49
2022/03/01 05:02:55;;;;;;;24.17;14.80;;;-0.10;99.90;;;;;;5034145;28;20120;-48
2022/03/01 05:05:21;;;;;;;25.92;15.10;;;-0.10;99.90;;;;;;5032722;28;20084;-49
2022/03/01 05:07:48;;;;;;;21.60;13.38;;;-0.10;99.90;;;;;;5033767;28;20045;-48
2022/03/01 05:10:19;;;;;;;24.58;15.25;;;0.00;99.90;;;;;;5033767;28;20148;-47
2022/03/01 05:12:48;;;;;;;24.73;14.15;;;0.00;99.90;;;;;;5034303;28;20355;-48
2022/03/01 05:15:15;;;;;;;27.00;14.85;;;0.00;99.90;;;;;;5033791;28;20049;-47
2022/03/01 05:17:41;;;;;;;24.65;14.80;;;0.10;99.90;;;;;;5033514;28;20045;-47
2022/03/01 05:20:08;;;;;;;23.67;14.52;;;0.00;99.90;;;;;;5033783;28;20047;-47
2022/03/01 05:22:35;;;;;;;27.92;13.82;;;0.10;99.90;;;;;;5031752;28;20046;-48
2022/03/01 05:25:01;;;;;;;26.27;14.50;;;0.10;99.90;;;;;;5033677;28;20042;-47
2022/03/01 05:27:28;;;;;;;25.80;14.65;;;0.10;99.90;;;;;;5028269;28;20567;-49
2022/03/01 05:29:54;;;;;;;29.20;15.43;;;0.00;99.90;;;;;;5011603;28;20048;-48
2022/03/01 05:32:20;;;;;;;25.92;14.20;;;0.10;99.90;;;;;;5031949;28;20475;-48
2022/03/01 05:34:46;;;;;;;26.60;14.57;;;0.10;99.90;;;;;;5032723;28;20055;-45
2022/03/01 05:37:12;;;;;;;25.17;15.50;;;0.20;99.90;;;;;;5033071;28;20681;-44
2022/03/01 05:39:37;;;;;;;23.55;14.55;;;0.20;99.90;;;;;;5032517;28;20049;-46
2022/03/01 05:42:03;;;;;;;26.15;15.40;;;0.20;99.90;;;;;;5031908;28;20088;-46
2022/03/01 05:44:29;;;;;;;26.20;15.27;;;0.20;99.90;;;;;;5032558;28;20038;-48
2022/03/01 05:46:55;;;;;;;25.52;15.93;;;0.20;99.90;;;;;;5032369;28;20033;-45
2022/03/01 05:49:21;;;;;;;25.58;14.95;;;0.20;99.90;;;;;;5032628;28;20050;-44
2022/03/01 05:51:47;;;;;;;29.13;16.67;;;0.20;99.90;;;;;;5032078;28;20488;-43
2022/03/01 05:54:13;;;;;;;26.08;14.50;;;0.20;99.90;;;;;;5032365;28;20111;-45
2022/03/01 05:56:38;;;;;;;27.65;16.17;;;0.30;99.90;;;;;;5032070;28;20837;-47
2022/03/01 05:59:04;;;;;;;26.30;15.82;;;0.30;99.90;;;;;;5031878;28;20794;-45
2022/03/01 06:01:30;;;;;;;26.30;14.57;;;0.30;99.90;;;;;;5031577;28;20077;-44
2022/03/01 06:03:56;;;;;;;22.55;14.80;;;0.30;99.90;;;;;;5031772;28;20041;-45
2022/03/01 06:06:21;;;;;;;26.15;16.00;;;0.30;99.90;;;;;;5032050;28;20433;-49
2022/03/01 06:08:47;;;;;;;26.88;15.25;;;0.30;99.90;;;;;;5032140;28;20472;-47
2022/03/01 06:11:13;;;;;;;25.65;15.50;;;0.70;99.90;;;;;;5031674;28;20065;-46
2022/03/01 06:13:38;;;;;;;27.65;15.32;;;0.40;99.90;;;;;;5029947;28;20061;-51
2022/03/01 06:16:05;;;;;;;27.77;16.40;;;0.40;99.90;;;;;;5032200;28;20088;-48
2022/03/01 06:18:31;;;;;;;25.67;15.23;;;0.40;99.90;;;;;;5032000;28;20052;-44
2022/03/01 06:20:58;;;;;;;24.63;15.60;;;0.40;99.90;;;;;;5032584;28;20037;-45
2022/03/01 06:23:24;;;;;;;26.48;14.95;;;0.30;99.90;;;;;;5032550;28;20045;-47
2022/03/01 06:25:50;;;;;;;27.35;15.70;;;0.40;99.90;;;;;;5032591;28;20041;-45
2022/03/01 06:28:16;;;;;;;28.63;15.52;;;1.00;99.90;;;;;;5031926;28;20391;-44
2022/03/01 06:30:42;;;;;;;28.15;16.75;;;0.30;99.90;;;;;;5030983;28;20072;-46
2022/03/01 06:33:07;;;;;;;25.38;15.15;;;0.30;99.90;;;;;;5032418;28;20073;-45
2022/03/01 06:35:33;;;;;;;26.95;15.93;;;0.30;99.90;;;;;;5032644;28;20258;-45
2022/03/01 06:37:59;;;;;;;26.65;15.25;;;0.20;99.90;;;;;;5032411;28;20048;-45
2022/03/01 06:40:25;;;;;;;27.33;16.02;;;0.30;99.90;;;;;;5032502;28;20045;-46
2022/03/01 06:42:51;;;;;;;25.75;15.65;;;0.30;99.90;;;;;;5031894;28;20041;-44
2022/03/01 06:45:16;;;;;;;29.45;16.02;;;0.40;99.90;;;;;;5032403;28;20091;-46
2022/03/01 06:47:42;;;;;;;24.33;15.32;;;0.40;99.90;;;;;;5031995;28;20111;-45
2022/03/01 06:50:09;;;;;;;23.58;15.02;;;0.50;99.90;;;;;;5031996;28;20045;-44
2022/03/01 06:52:35;;;;;;;26.35;15.70;;;0.50;99.90;;;;;;5031516;28;20052;-44
2022/03/01 06:55:06;;;;;;;27.08;16.25;;;0.60;99.90;;;;;;5029979;28;20470;-45
2022/03/01 06:57:32;;;;;;;26.45;15.27;;;0.70;99.90;;;;;;5032132;28;20045;-45
2022/03/01 06:59:58;;;;;;;24.80;15.85;;;0.80;99.90;;;;;;5031578;28;20053;-45
2022/03/01 07:02:26;;;;;;;24.77;15.35;;;0.80;99.90;;;;;;5031469;28;20045;-44
2022/03/01 07:04:55;;;;;;;28.58;17.23;;;0.90;99.90;;;;;;5031891;28;20038;-45
2022/03/01 07:07:22;;;;;;;28.17;16.73;;;1.00;99.90;;;;;;5030261;28;20037;-46
2022/03/01 07:09:49;;;;;;;26.33;15.48;;;1.10;99.90;;;;;;5031754;28;20538;-44
2022/03/01 07:12:15;;;;;;;26.77;15.70;;;1.10;99.90;;;;;;5031675;28;20076;-45
2022/03/01 07:14:40;;;;;;;24.77;14.98;;;1.10;99.90;;;;;;5031298;28;20076;-44
2022/03/01 07:17:07;;;;;;;25.10;15.20;;;1.20;99.90;;;;;;5031479;28;20545;-44
2022/03/01 07:19:32;;;;;;;25.17;14.95;;;1.30;99.90;;;;;;5031864;28;20396;-48
2022/03/01 07:21:58;;;;;;;27.00;15.02;;;1.80;99.90;;;;;;5031667;28;20034;-47
2022/03/01 07:24:24;;;;;;;26.63;16.40;;;1.50;99.90;;;;;;5031331;28;20069;-45
2022/03/01 07:26:50;;;;;;;23.23;14.73;;;1.60;99.90;;;;;;5031355;28;20037;-44
2022/03/01 07:29:16;;;;;;;26.45;15.70;;;1.70;99.90;;;;;;5031047;28;20397;-45
2022/03/01 07:31:41;;;;;;;25.45;15.02;;;1.80;99.90;;;;;;5031210;28;20072;-45
2022/03/01 07:34:08;;;;;;;25.75;15.05;;;1.90;99.90;;;;;;5031690;28;20107;-45
2022/03/01 07:36:33;;;;;;;25.70;15.57;;;2.10;99.90;;;;;;5031074;28;20056;-45
2022/03/01 07:38:59;;;;;;;23.05;13.63;;;2.10;99.90;;;;;;5031339;28;20041;-46
2022/03/01 07:41:25;;;;;;;24.40;15.43;;;2.30;99.90;;;;;;5031022;28;20037;-44
2022/03/01 07:43:51;;;;;;;25.08;15.82;;;2.40;99.90;;;;;;5030993;28;20045;-46
2022/03/01 07:46:16;;;;;;;22.33;14.70;;;2.50;99.90;;;;;;5030686;28;20118;-46
2022/03/01 07:48:43;;;;;;;23.05;13.88;;;2.60;99.90;;;;;;5031132;28;20449;-46
2022/03/01 07:51:09;;;;;;;23.20;15.35;;;2.70;99.90;;;;;;5031083;28;20045;-45
2022/03/01 07:53:35;;;;;;;21.33;14.18;;;2.80;99.90;;;;;;5031173;28;20049;-47
2022/03/01 07:56:01;;;;;;;23.58;13.80;;;2.90;99.90;;;;;;5030922;28;20046;-49
2022/03/01 07:58:27;;;;;;;24.98;13.90;;;3.10;99.90;;;;;;5010139;28;20065;-46
2022/03/01 08:00:53;;;;;;;27.52;14.55;;;3.30;99.90;;;;;;5028291;28;20080;-47
2022/03/01 08:03:18;;;;;;;22.73;13.93;;;3.50;99.90;;;;;;5026754;28;20402;-39
2022/03/01 08:05:45;;;;;;;20.52;12.45;;;3.70;99.90;;;;;;5027456;28;20044;-42
2022/03/01 08:08:11;;;;;;;19.73;13.18;;;3.90;99.90;;;;;;5027276;28;20136;-41
2022/03/01 08:10:37;;;;;;;24.10;14.10;;;4.00;99.90;;;;;;5026677;28;20514;-42
2022/03/01 08:13:03;;;;;;;23.35;14.27;;;4.20;99.90;;;;;;5028928;28;20081;-42
2022/03/01 08:15:28;;;;;;;22.05;12.48;;;4.30;99.90;;;;;;5030184;28;20076;-42
2022/03/01 08:17:56;;;;;;;19.85;12.88;;;4.30;99.90;;;;;;5030957;28;20053;-45
2022/03/01 08:20:23;;;;;;;21.73;13.70;;;4.40;99.90;;;;;;5031069;28;20042;-46
2022/03/01 08:22:49;;;;;;;23.27;13.82;;;4.40;99.90;;;;;;5030920;28;20452;-46
2022/03/01 08:25:18;;;;;;;20.17;13.43;;;4.60;99.90;;;;;;5031897;28;20112;-46
2022/03/01 08:27:44;;;;;;;21.80;14.15;;;4.60;99.90;;;;;;5034796;28;20049;-45
2022/03/01 08:30:11;;;;;;;20.30;13.60;;;4.70;99.90;;;;;;5034976;28;20037;-45
2022/03/01 08:32:36;;;;;;;28.73;15.00;;;4.70;99.90;;;;;;5035180;28;20076;-45
2022/03/01 08:35:02;;;;;;;20.92;12.68;;;4.80;99.90;;;;;;5034990;28;20562;-46
2022/03/01 08:37:28;;;;;;;21.05;13.35;;;4.90;99.90;;;;;;5034732;28;20046;-45
2022/03/01 08:39:54;;;;;;;20.67;13.82;;;4.80;99.90;;;;;;5034667;28;20041;-47
2022/03/01 08:42:20;;;;;;;20.77;13.38;;;4.90;99.90;;;;;;5034576;28;20159;-46
2022/03/01 08:44:46;;;;;;;20.63;13.18;;;5.00;99.90;;;;;;5035119;28;20045;-44
2022/03/01 08:47:11;;;;;;;20.80;14.35;;;5.10;99.90;;;;;;5035004;28;20060;-45
2022/03/01 08:49:37;;;;;;;22.95;13.27;;;5.20;99.90;;;;;;5034668;28;20037;-50
2022/03/01 08:52:03;;;;;;;20.20;12.52;;;6.30;99.90;;;;;;5034562;28;20056;-49
2022/03/01 08:54:29;;;;;;;19.60;12.55;;;5.50;99.90;;;;;;5034071;28;20048;-45
2022/03/01 08:56:54;;;;;;;19.60;12.68;;;5.70;99.90;;;;;;5034342;28;20049;-48
2022/03/01 08:59:21;;;;;;;19.30;11.88;;;6.00;99.90;;;;;;5034479;28;20081;-47
2022/03/01 09:01:47;;;;;;;19.05;13.25;;;7.40;99.90;;;;;;5034851;28;20049;-45
2022/03/01 09:04:13;;;;;;;19.08;11.70;;;6.90;99.90;;;;;;5034736;28;20034;-45
2022/03/01 09:06:38;;;;;;;20.20;12.13;;;7.40;99.90;;;;;;5034374;28;20045;-45
2022/03/01 09:09:04;;;;;;;19.10;12.57;;;7.80;99.90;;;;;;5034533;28;20052;-46
2022/03/01 09:11:30;;;;;;;19.83;12.50;;;8.20;99.90;;;;;;5034501;28;20072;-47
2022/03/01 09:13:56;;;;;;;17.92;12.30;;;8.60;99.90;;;;;;5034143;28;20041;-46
2022/03/01 09:16:21;;;;;;;20.75;13.90;;;8.50;99.90;;;;;;5034382;28;20038;-45
2022/03/01 09:18:47;;;;;;;18.92;12.52;;;8.80;99.90;;;;;;5033947;28;20388;-45
2022/03/01 09:21:14;;;;;;;15.82;10.82;;;9.00;99.90;;;;;;5034375;28;20064;-45
2022/03/01 09:23:41;;;;;;;17.73;12.13;;;9.10;99.90;;;;;;5033891;28;20063;-45
2022/03/01 09:26:07;;;;;;;16.88;11.88;;;9.30;99.90;;;;;;5034646;28;20049;-44
2022/03/01 09:28:33;;;;;;;20.08;13.27;;;9.40;99.10;;;;;;5034336;28;20047;-45
2022/03/01 09:30:59;;;;;;;19.45;13.30;;;9.40;98.50;;;;;;5034073;28;20041;-46
2022/03/01 09:33:25;;;;;;;17.85;11.73;;;9.30;97.80;;;;;;5033938;28;20063;-46
2022/03/01 09:35:50;;;;;;;18.20;12.38;;;9.50;97.80;;;;;;5033809;28;20045;-45
2022/03/01 09:38:16;;;;;;;19.63;12.27;;;9.20;97.30;;;;;;5032469;28;20037;-46
2022/03/01 09:40:48;;;;;;;20.45;12.63;;;9.40;97.40;;;;;;5033481;28;20043;-49
2022/03/01 09:43:15;;;;;;;18.40;12.75;;;9.30;97.30;;;;;;5033750;28;20153;-46
2022/03/01 09:45:41;;;;;;;19.08;12.23;;;9.40;97.00;;;;;;5033449;28;20483;-46
2022/03/01 09:48:07;;;;;;;16.67;11.88;;;9.80;97.10;;;;;;5033819;28;20052;-46
2022/03/01 09:50:33;;;;;;;19.90;12.45;;;9.60;96.30;;;;;;5033561;28;20112;-46
2022/03/01 09:53:01;;;;;;;16.58;11.82;;;9.60;95.80;;;;;;5033203;28;20056;-46
2022/03/01 09:55:28;;;;;;;18.58;11.85;;;9.60;95.40;;;;;;5033225;28;20045;-45
2022/03/01 09:57:54;;;;;;;19.38;11.70;;;9.60;95.10;;;;;;5033276;28;20472;-45
2022/03/01 10:00:19;;;;;;;19.88;12.68;;;10.00;95.30;;;;;;5031479;28;20136;-45
2022/03/01 10:02:45;;;;;;;17.90;12.68;;;9.60;95.40;;;;;;5033572;28;20038;-46
2022/03/01 10:05:13;;;;;;;20.52;13.27;;;10.00;95.70;;;;;;5033179;28;20041;-45
2022/03/01 10:07:46;;;;;;;18.17;11.88;;;9.90;95.70;;;;;;5033123;28;20045;-46
2022/03/01 10:10:19;;;;;;;17.20;10.88;;;10.00;95.50;;;;;;5033049;28;20057;-45
2022/03/01 10:12:53;;;;;;;19.30;12.57;;;10.10;95.20;;;;;;5033500;28;20457;-48
2022/03/01 10:15:26;;;;;;;16.20;11.63;;;10.80;94.90;;;;;;5033151;28;20056;-45
2022/03/01 10:17:52;;;;;;;17.48;11.73;;;10.10;94.20;;;;;;5032840;28;20487;-47
2022/03/01 10:20:19;;;;;;;17.90;10.75;;;10.00;94.40;;;;;;5033148;28;20065;-45
2022/03/01 10:22:47;;;;;;;16.70;11.07;;;10.00;94.10;;;;;;5032955;28;20399;-46
2022/03/01 10:25:15;;;;;;;16.58;11.98;;;9.70;93.80;;;;;;5032918;28;20099;-46
2022/03/01 10:27:44;;;;;;;15.95;11.20;;;9.60;93.70;;;;;;5033057;28;20043;-47
2022/03/01 10:30:10;;;;;;;16.40;11.10;;;9.50;93.40;;;;;;5032602;28;20514;-46
2022/03/01 10:32:36;;;;;;;16.50;11.75;;;9.50;93.60;;;;;;5031478;28;20116;-46
2022/03/01 10:35:09;;;;;;;14.75;10.43;;;9.50;93.80;;;;;;5032513;28;20472;-47
2022/03/01 10:37:39;;;;;;;18.58;11.18;;;9.90;93.90;;;;;;5032594;28;20033;-45
2022/03/01 10:40:17;;;;;;;16.10;10.20;;;10.10;93.80;;;;;;5031860;28;20510;-46
2022/03/01 10:42:43;;;;;;;16.33;11.65;;;10.70;93.20;;;;;;5032239;28;20045;-45
2022/03/01 10:45:10;;;;;;;16.58;10.45;;;11.20;93.10;;;;;;5032534;28;20033;-46
2022/03/01 10:47:37;;;;;;;15.25;11.68;;;12.10;93.00;;;;;;5031627;28;20533;-45
2022/03/01 10:50:09;;;;;;;18.55;11.25;;;12.70;92.00;;;;;;5031887;28;20045;-46
2022/03/01 10:52:39;;;;;;;13.87;10.27;;;13.30;91.20;;;;;;5032217;28;20120;-46
2022/03/01 10:55:06;;;;;;;16.42;10.88;;;14.00;90.50;;;;;;5032337;28;20471;-47
2022/03/01 10:57:33;;;;;;;15.48;10.93;;;13.90;88.10;;;;;;5032488;28;20041;-46
2022/03/01 10:59:58;;;;;;;16.25;10.95;;;14.30;87.20;;;;;;5031486;28;20095;-47
2022/03/01 11:02:24;;;;;;;16.10;10.75;;;14.70;84.40;;;;;;5031853;28;20037;-49
2022/03/01 11:04:51;;;;;;;14.57;11.15;;;15.00;82.50;;;;;;5032323;28;20037;-45
2022/03/01 11:07:19;;;;;;;14.55;10.05;;;15.00;80.20;;;;;;5032015;28;20041;-48
2022/03/01 11:09:45;;;;;;;14.20;9.95;;;14.60;78.40;;;;;;5031469;28;20433;-47
2022/03/01 11:12:11;;;;;;;16.27;10.38;;;14.30;78.70;;;;;;5031977;28;20117;-47
2022/03/01 11:15:01;;;;;;;17.33;10.48;;;14.40;79.30;;;;;;5031859;28;20112;-46
2022/03/01 11:17:52;;;;;;;16.45;11.30;;;14.20;78.80;;;;;;5031814;28;20041;-46
2022/03/01 11:20:35;;;;;;;17.05;11.77;;;13.90;77.30;;;;;;5032009;28;20095;-46
2022/03/01 11:23:10;;;;;;;16.27;11.05;;;13.70;77.80;;;;;;5032326;28;20037;-46
2022/03/01 11:25:41;;;;;;;14.45;10.63;;;13.40;79.40;;;;;;5031269;28;20500;-47
2022/03/01 11:28:09;;;;;;;16.00;10.85;;;13.30;79.80;;;;;;5032150;28;20037;-46
2022/03/01 11:30:41;;;;;;;15.18;11.05;;;13.60;81.00;;;;;;5030300;28;20048;-47
2022/03/01 11:33:07;;;;;;;15.43;10.75;;;13.30;78.80;;;;;;5032029;28;20471;-47
2022/03/01 11:35:36;;;;;;;16.20;10.68;;;13.20;80.30;;;;;;5031586;28;20049;-46
2022/03/01 11:38:10;;;;;;;14.80;10.77;;;13.10;79.10;;;;;;5031405;28;20072;-47
2022/03/01 11:40:46;;;;;;;14.38;11.13;;;13.10;79.40;;;;;;5031031;28;20080;-46
2022/03/01 11:43:14;;;;;;;15.88;10.82;;;13.00;78.60;;;;;;5031275;28;20543;-47
2022/03/01 11:45:53;;;;;;;15.02;10.32;;;13.00;79.60;;;;;;5031318;28;20033;-46
2022/03/01 11:48:25;;;;;;;14.90;11.07;;;12.90;78.70;;;;;;5031934;28;20045;-48
2022/03/01 11:51:01;;;;;;;15.23;11.45;;;13.10;78.70;;;;;;5031229;28;20501;-47
2022/03/01 11:53:30;;;;;;;18.15;11.43;;;13.10;78.50;;;;;;5031531;28;20052;-46
2022/03/01 11:55:58;;;;;;;14.00;10.45;;;13.00;78.70;;;;;;5030503;28;20128;-48
2022/03/01 11:58:25;;;;;;;15.30;11.57;;;13.00;78.20;;;;;;5031741;28;20057;-46
2022/03/01 12:00:53;;;;;;;17.52;11.45;;;12.80;77.60;;;;;;5030684;28;20487;-45
2022/03/01 12:03:22;;;;;;;16.67;10.70;;;12.60;77.90;;;;;;5031812;28;20045;-46
2022/03/01 12:05:49;;;;;;;15.55;10.85;;;12.50;77.60;;;;;;5031503;28;20052;-46
2022/03/01 12:08:17;;;;;;;15.85;10.73;;;12.40;78.20;;;;;;5046793;28;20041;-47
2022/03/01 12:11:05;;;;;;;15.35;11.93;;;12.40;78.50;;;;;;5030937;28;20049;-47
2022/03/01 12:13:45;;;;;;;13.75;10.15;;;12.50;77.20;;;;;;5030671;28;20491;-45
2022/03/01 12:16:33;;;;;;;15.02;10.35;;;12.60;77.20;;;;;;5030892;28;20041;-45
2022/03/01 12:19:17;;;;;;;16.17;10.95;;;12.60;77.50;;;;;;5029975;28;20092;-47
2022/03/01 12:21:54;;;;;;;14.73;9.95;;;12.70;76.00;;;;;;5030482;28;20049;-46
2022/03/01 12:24:22;;;;;;;18.45;11.13;;;12.70;75.50;;;;;;5030647;28;20525;-47
2022/03/01 12:26:56;;;;;;;15.93;10.95;;;12.80;76.60;;;;;;5030566;28;20041;-46
2022/03/01 12:29:27;;;;;;;20.80;12.38;;;12.70;75.30;;;;;;5030821;28;20368;-46
2022/03/01 12:32:05;;;;;;;14.85;10.23;;;12.80;77.20;;;;;;5030099;28;20064;-46